Terminal Aerodrome Forecast
Issued by NWS Salt Lake City, UT

Home | Current Version | Previous Version | Text Only | Print | Product List | Glossary On
Versions: 1 2 3 4 5 6 7 8 9 10 11 12 13 14
320
FTUS45 KSLC 221120
TAFCDC
TAF
KCDC 221120Z 2212/2312 VRB05KT P6SM FEW090 BKN120
     FM221800 22010G18KT P6SM VCSH SCT040 BKN080
     FM222000 20010G18KT P6SM VCTS SCT040CB BKN080
     FM230200 20006KT P6SM VCSH SCT040 BKN080=

USA.gov is the U.S. government's official web portal to all federal, state and local government web resources and services.